createdAt,value
2023-05-05T00:00:13.521Z,77.22
2023-05-05T00:03:01.550Z,76.92
2023-05-05T00:05:30.795Z,77.17
2023-05-05T00:07:59.124Z,77.17
2023-05-05T00:10:27.344Z,76.94
2023-05-05T00:12:55.372Z,76.84
2023-05-05T00:15:23.379Z,76.84
2023-05-05T00:17:51.453Z,76.68
2023-05-05T00:20:19.633Z,76.67
2023-05-05T00:22:47.637Z,76.45
2023-05-05T00:25:15.958Z,76.30
2023-05-05T00:27:43.980Z,76.25
2023-05-05T00:30:13.821Z,76.27
2023-05-05T00:32:41.875Z,76.39
2023-05-05T00:35:10.166Z,76.39
2023-05-05T00:37:38.369Z,76.07
2023-05-05T00:40:07.680Z,76.03
2023-05-05T00:42:41.528Z,76.03
2023-05-05T00:45:11.451Z,76.18
2023-05-05T00:47:41.673Z,75.88
2023-05-05T00:50:11.069Z,76.10
2023-05-05T00:52:39.437Z,75.94
2023-05-05T00:55:08.457Z,76.39
2023-05-05T00:57:36.676Z,76.42
2023-05-05T01:00:06.401Z,76.80
2023-05-05T01:02:34.772Z,76.94
2023-05-05T01:05:04.256Z,76.86
2023-05-05T01:08:14.245Z,76.74
2023-05-05T01:11:14.643Z,76.64
2023-05-05T01:13:42.929Z,76.84
2023-05-05T01:16:31.038Z,76.69
2023-05-05T01:19:20.660Z,76.71
2023-05-05T01:21:54.593Z,76.75
2023-05-05T01:24:46.893Z,76.93
2023-05-05T01:27:34.457Z,76.84
2023-05-05T01:30:28.294Z,76.86
2023-05-05T01:33:03.903Z,77.23
2023-05-05T01:35:38.181Z,77.27
2023-05-05T01:38:10.014Z,77.25
2023-05-05T01:40:43.850Z,77.29
2023-05-05T01:43:15.368Z,77.86
2023-05-05T01:45:45.978Z,77.77
2023-05-05T01:48:18.395Z,77.75
2023-05-05T01:50:48.471Z,77.70
2023-05-05T01:53:19.212Z,77.63
2023-05-05T01:55:49.495Z,77.54
2023-05-05T01:58:18.572Z,78.01
2023-05-05T02:00:49.177Z,78.32
2023-05-05T02:03:19.697Z,78.47
2023-05-05T02:05:49.329Z,78.42
2023-05-05T02:08:18.859Z,78.23
2023-05-05T02:10:49.372Z,78.13
2023-05-05T02:13:19.538Z,78.15
2023-05-05T02:15:49.555Z,78.01
2023-05-05T02:18:18.870Z,78.11
2023-05-05T02:20:47.496Z,78.23
2023-05-05T02:23:15.710Z,78.07
2023-05-05T02:25:49.458Z,78.20
2023-05-05T02:28:21.901Z,77.99
2023-05-05T02:30:59.988Z,77.81
2023-05-05T02:33:32.780Z,77.91
2023-05-05T02:36:19.774Z,77.77
2023-05-05T02:39:03.857Z,77.87
2023-05-05T02:41:38.374Z,78.34
2023-05-05T02:44:13.037Z,78.47
2023-05-05T02:46:42.873Z,78.92
2023-05-05T02:49:11.170Z,79.02
2023-05-05T02:51:39.493Z,78.96
2023-05-05T02:54:11.025Z,78.71
2023-05-05T02:56:50.228Z,78.35
2023-05-05T02:59:31.151Z,78.46
2023-05-05T03:02:38.051Z,78.11
2023-05-05T03:05:19.169Z,77.76
2023-05-05T03:08:02.745Z,77.91
2023-05-05T03:10:41.804Z,78.14
2023-05-05T03:13:11.956Z,77.62
2023-05-05T03:15:52.548Z,77.69
2023-05-05T03:18:25.432Z,78.14
2023-05-05T03:21:08.101Z,78.33
2023-05-05T03:23:37.321Z,78.29
2023-05-05T03:26:07.899Z,78.32
2023-05-05T03:28:39.580Z,78.51
2023-05-05T03:31:14.031Z,78.47
2023-05-05T03:33:42.447Z,78.36
2023-05-05T03:36:10.871Z,78.47
2023-05-05T03:38:39.103Z,78.39
2023-05-05T03:41:07.112Z,79.11
2023-05-05T03:43:35.729Z,79.05
2023-05-05T03:46:04.016Z,78.93
2023-05-05T03:48:32.168Z,78.89
2023-05-05T03:51:00.627Z,78.95
2023-05-05T03:53:29.365Z,78.78
2023-05-05T03:55:57.438Z,78.83
2023-05-05T03:58:25.762Z,78.53
2023-05-05T04:00:53.875Z,78.74
2023-05-05T04:03:22.168Z,78.85
2023-05-05T04:05:50.626Z,78.78
2023-05-05T04:08:18.736Z,78.65
2023-05-05T04:10:46.860Z,78.81
2023-05-05T04:13:15.006Z,78.93
2023-05-05T04:15:47.072Z,78.66
2023-05-05T04:18:15.636Z,78.58
2023-05-05T04:20:44.357Z,78.46
2023-05-05T04:23:12.776Z,78.42
2023-05-05T04:25:41.397Z,78.50
2023-05-05T04:28:10.824Z,78.22
2023-05-05T04:30:39.246Z,78.49
2023-05-05T04:33:07.673Z,78.45
2023-05-05T04:35:35.788Z,78.07
2023-05-05T04:38:03.909Z,77.92
2023-05-05T04:40:32.427Z,77.39
2023-05-05T04:43:00.748Z,76.39
2023-05-05T04:45:29.872Z,76.35
2023-05-05T04:47:58.288Z,75.69
2023-05-05T04:50:27.218Z,75.74
2023-05-05T04:52:56.448Z,75.14
2023-05-05T04:55:25.468Z,74.47
2023-05-05T04:57:54.081Z,74.05
2023-05-05T05:00:21.997Z,74.11
2023-05-05T05:02:50.104Z,73.77
2023-05-05T05:05:18.457Z,73.18
2023-05-05T05:07:46.562Z,72.73
2023-05-05T05:10:14.986Z,72.89
2023-05-05T05:12:43.025Z,72.24
2023-05-05T05:15:13.194Z,71.01
2023-05-05T05:17:41.768Z,70.81
2023-05-05T05:20:10.656Z,70.17
2023-05-05T05:22:39.395Z,70.28
2023-05-05T05:25:10.224Z,70.52
2023-05-05T05:27:38.344Z,69.56
2023-05-05T05:30:07.732Z,69.51
2023-05-05T05:32:36.321Z,69.28
2023-05-05T05:35:05.116Z,68.75
2023-05-05T05:37:35.062Z,68.74
2023-05-05T05:40:05.596Z,68.21
2023-05-05T05:42:34.085Z,68.04
2023-05-05T05:45:02.308Z,66.82
2023-05-05T05:47:31.110Z,66.86
2023-05-05T05:49:59.364Z,66.01
2023-05-05T05:52:27.369Z,65.61
2023-05-05T05:54:55.887Z,65.14
2023-05-05T05:57:24.755Z,64.22
2023-05-05T05:59:54.136Z,64.02
2023-05-05T06:02:22.983Z,62.88
2023-05-05T06:04:51.725Z,62.91
2023-05-05T06:07:20.183Z,61.25
2023-05-05T06:09:48.536Z,61.10
2023-05-05T06:12:16.741Z,60.30
2023-05-05T06:14:44.962Z,60.12
2023-05-05T06:17:12.988Z,60.38
2023-05-05T06:19:42.405Z,59.71
2023-05-05T06:22:11.125Z,59.09
2023-05-05T06:24:39.245Z,58.74
2023-05-05T06:27:07.465Z,59.16
2023-05-05T06:29:35.488Z,58.94
2023-05-05T06:32:03.506Z,58.55
2023-05-05T06:34:31.726Z,58.56
2023-05-05T06:36:59.748Z,58.84
2023-05-05T06:39:27.768Z,58.19
2023-05-05T06:41:56.136Z,57.57
2023-05-05T06:44:24.106Z,57.15
2023-05-05T06:46:52.170Z,55.68
2023-05-05T06:49:20.247Z,56.58
2023-05-05T06:51:48.669Z,56.18
2023-05-05T06:54:16.915Z,55.19
2023-05-05T06:56:45.512Z,54.75
2023-05-05T06:59:13.848Z,54.86
2023-05-05T07:01:41.857Z,55.45
2023-05-05T07:04:10.137Z,54.13
2023-05-05T07:06:38.300Z,53.25
2023-05-05T07:09:06.812Z,52.40
2023-05-05T07:11:35.234Z,52.48
2023-05-05T07:14:03.555Z,52.80
2023-05-05T07:16:31.599Z,52.70
2023-05-05T07:19:01.013Z,52.14
2023-05-05T07:21:29.020Z,51.58
2023-05-05T07:23:57.146Z,51.41
2023-05-05T07:26:25.762Z,50.57
2023-05-05T07:28:55.601Z,48.32
2023-05-05T07:31:23.641Z,48.80
2023-05-05T07:33:51.731Z,48.64
2023-05-05T07:36:20.047Z,48.10
2023-05-05T07:38:48.377Z,47.48
2023-05-05T07:41:16.490Z,46.27
2023-05-05T07:43:44.811Z,46.29
2023-05-05T07:46:14.053Z,46.46
2023-05-05T07:48:42.196Z,45.57
2023-05-05T07:51:11.174Z,43.06
2023-05-05T07:53:39.492Z,43.54
2023-05-05T07:56:08.934Z,43.77
2023-05-05T07:58:37.137Z,44.14
2023-05-05T08:01:06.670Z,44.72
2023-05-05T08:03:34.822Z,45.27
2023-05-05T08:06:09.372Z,45.21
2023-05-05T08:08:38.149Z,43.88
2023-05-05T08:11:06.912Z,43.10
2023-05-05T08:13:35.299Z,42.70
2023-05-05T08:16:03.726Z,42.69
2023-05-05T08:18:31.837Z,43.97
2023-05-05T08:20:59.852Z,44.02
2023-05-05T08:23:27.876Z,44.28
2023-05-05T08:25:56.197Z,43.69
2023-05-05T08:28:24.114Z,42.53
2023-05-05T08:30:52.231Z,43.08
2023-05-05T08:33:20.265Z,43.77
2023-05-05T08:35:49.673Z,44.66
2023-05-05T08:38:19.205Z,43.83
2023-05-05T08:40:47.327Z,42.55
2023-05-05T08:43:16.043Z,42.23
2023-05-05T08:45:45.022Z,41.44
2023-05-05T08:48:13.190Z,41.41
2023-05-05T08:50:44.995Z,41.45
2023-05-05T08:53:30.233Z,41.41
2023-05-05T08:56:01.091Z,41.57
2023-05-05T08:58:31.401Z,42.24
2023-05-05T09:01:01.631Z,42.54
2023-05-05T09:03:30.002Z,42.11
2023-05-05T09:05:58.121Z,41.92
2023-05-05T09:08:27.145Z,41.25
2023-05-05T09:10:56.065Z,41.29
2023-05-05T09:13:24.292Z,41.30
2023-05-05T09:15:52.312Z,41.52
2023-05-05T09:18:20.325Z,40.85
2023-05-05T09:20:48.562Z,40.98
2023-05-05T09:23:17.972Z,41.32
2023-05-05T09:26:05.060Z,40.73
2023-05-05T09:28:33.093Z,40.56
2023-05-05T09:31:16.276Z,41.00
2023-05-05T09:33:44.668Z,40.89
2023-05-05T09:36:12.704Z,40.56
2023-05-05T09:38:40.842Z,39.86
2023-05-05T09:41:08.943Z,40.38
2023-05-05T09:43:52.070Z,40.77
2023-05-05T09:46:20.247Z,39.70
2023-05-05T09:48:48.343Z,38.76
2023-05-05T09:51:16.363Z,38.46
2023-05-05T09:53:45.188Z,35.18
2023-05-05T09:56:13.302Z,34.02
2023-05-05T09:58:42.353Z,35.95
2023-05-05T10:01:23.845Z,36.37
2023-05-05T10:03:52.549Z,35.98
2023-05-05T10:06:20.633Z,36.07
2023-05-05T10:09:01.754Z,36.29
2023-05-05T10:11:30.422Z,35.03
2023-05-05T10:13:58.551Z,34.65
2023-05-05T10:16:30.296Z,33.56
2023-05-05T10:19:02.316Z,33.47
2023-05-05T10:21:40.218Z,33.27
2023-05-05T10:24:17.012Z,32.82
2023-05-05T10:26:46.736Z,32.19
2023-05-05T10:29:30.717Z,31.69
2023-05-05T10:32:18.922Z,32.44
2023-05-05T10:35:01.580Z,33.11
2023-05-05T10:37:30.601Z,31.23
2023-05-05T10:39:59.338Z,31.34
2023-05-05T10:42:27.966Z,29.70
2023-05-05T10:44:56.399Z,30.39
2023-05-05T10:47:25.324Z,30.31
2023-05-05T10:50:06.722Z,30.10
2023-05-05T10:53:05.889Z,30.48
2023-05-05T10:55:59.403Z,31.26
2023-05-05T10:58:47.134Z,31.12
2023-05-05T11:01:34.313Z,31.14
2023-05-05T11:04:24.978Z,30.32
2023-05-05T11:07:09.238Z,28.69
2023-05-05T11:09:55.426Z,28.51
2023-05-05T11:12:23.758Z,29.24
2023-05-05T11:15:27.464Z,28.32
2023-05-05T11:18:00.569Z,28.03
2023-05-05T11:20:36.033Z,28.48
2023-05-05T11:23:04.405Z,28.79
2023-05-05T11:25:42.277Z,28.90
2023-05-05T11:28:12.626Z,28.92
2023-05-05T11:30:59.357Z,29.40
2023-05-05T11:33:37.157Z,29.70
2023-05-05T11:36:16.040Z,29.57
2023-05-05T11:39:09.214Z,29.68
2023-05-05T11:42:10.201Z,29.90
2023-05-05T11:44:39.440Z,30.32
2023-05-05T11:47:07.668Z,30.51
2023-05-05T11:49:36.649Z,30.62
2023-05-05T11:52:13.164Z,30.14
2023-05-05T11:54:48.139Z,29.86
2023-05-05T11:57:21.106Z,30.39
2023-05-05T12:00:02.798Z,30.87
2023-05-05T12:02:33.074Z,31.02
2023-05-05T12:05:02.771Z,31.00
2023-05-05T12:07:33.622Z,30.47
2023-05-05T12:10:02.124Z,29.95
2023-05-05T12:12:36.038Z,29.58
2023-05-05T12:15:05.359Z,28.92
2023-05-05T12:17:42.749Z,29.20
2023-05-05T12:20:12.157Z,29.30
2023-05-05T12:22:40.950Z,29.55
2023-05-05T12:25:09.840Z,29.41
2023-05-05T12:27:38.954Z,29.28
2023-05-05T12:30:25.126Z,29.52
2023-05-05T12:33:02.082Z,29.93
2023-05-05T12:35:31.235Z,29.82
2023-05-05T12:37:59.376Z,28.47
2023-05-05T12:40:46.674Z,28.97
2023-05-05T12:43:44.284Z,29.10
2023-05-05T12:46:13.383Z,28.38
2023-05-05T12:48:48.192Z,28.71
2023-05-05T12:51:19.953Z,29.65
2023-05-05T12:53:50.588Z,30.11
2023-05-05T12:56:35.092Z,30.52
2023-05-05T12:59:36.533Z,30.52
2023-05-05T13:02:04.912Z,30.87
2023-05-05T13:04:33.077Z,30.24
2023-05-05T13:07:15.252Z,30.99
2023-05-05T13:09:43.258Z,31.45
2023-05-05T13:12:14.301Z,33.47
2023-05-05T13:14:43.027Z,35.09
2023-05-05T13:17:12.133Z,35.82
2023-05-05T13:19:46.527Z,35.72
2023-05-05T13:22:14.910Z,34.87
2023-05-05T13:24:51.890Z,34.43
2023-05-05T13:27:21.238Z,34.71
2023-05-05T13:29:49.342Z,34.45
2023-05-05T13:32:17.313Z,34.17
2023-05-05T13:34:45.471Z,33.99
2023-05-05T13:37:13.354Z,34.40
2023-05-05T13:39:41.405Z,34.06
2023-05-05T13:42:09.919Z,34.48
2023-05-05T13:44:37.921Z,35.19
2023-05-05T13:47:06.075Z,35.33
2023-05-05T13:49:34.856Z,35.30
2023-05-05T13:52:03.182Z,35.69
2023-05-05T13:54:31.098Z,35.79
2023-05-05T13:56:59.316Z,35.52
2023-05-05T13:59:27.533Z,35.63
2023-05-05T14:01:56.157Z,35.75
2023-05-05T14:04:24.278Z,36.40
2023-05-05T14:06:53.627Z,36.58
2023-05-05T14:09:21.723Z,37.24
2023-05-05T14:11:49.640Z,37.67
2023-05-05T14:14:18.162Z,37.95
2023-05-05T14:16:48.483Z,38.52
2023-05-05T14:19:18.016Z,39.31
2023-05-05T14:21:46.138Z,39.14
2023-05-05T14:24:14.159Z,37.96
2023-05-05T14:26:42.178Z,38.17
2023-05-05T14:29:10.300Z,38.26
2023-05-05T14:31:38.326Z,38.26
2023-05-05T14:34:06.832Z,38.02
2023-05-05T14:36:34.853Z,38.23
2023-05-05T14:39:03.074Z,38.27
2023-05-05T14:41:31.095Z,38.24
2023-05-05T14:43:59.413Z,38.35
2023-05-05T14:46:27.604Z,38.25
2023-05-05T14:48:55.672Z,38.07
2023-05-05T14:51:23.679Z,37.62
2023-05-05T14:53:51.894Z,37.76
2023-05-05T14:56:22.643Z,37.68
2023-05-05T14:58:52.142Z,37.83
2023-05-05T15:01:21.083Z,37.68
2023-05-05T15:03:49.195Z,37.96
2023-05-05T15:06:17.217Z,38.23
2023-05-05T15:08:45.233Z,38.03
2023-05-05T15:11:13.954Z,38.14
2023-05-05T15:13:41.967Z,38.22
2023-05-05T15:16:10.429Z,38.17
2023-05-05T15:18:38.582Z,38.47
2023-05-05T15:21:06.632Z,38.54
2023-05-05T15:23:34.949Z,38.60
2023-05-05T15:26:03.178Z,39.06
2023-05-05T15:28:31.290Z,38.98
2023-05-05T15:31:03.723Z,38.89
2023-05-05T15:33:31.866Z,38.98
2023-05-05T15:36:00.477Z,38.73
2023-05-05T15:38:29.789Z,38.61
2023-05-05T15:40:57.911Z,38.23
2023-05-05T15:43:25.928Z,38.33
2023-05-05T15:45:54.050Z,38.71
2023-05-05T15:48:22.069Z,38.69
2023-05-05T15:50:50.390Z,38.90
2023-05-05T15:53:18.406Z,39.27
2023-05-05T15:55:46.929Z,39.48
2023-05-05T15:58:14.956Z,39.23
2023-05-05T16:00:42.969Z,39.56
2023-05-05T16:03:11.720Z,40.02
2023-05-05T16:05:39.706Z,40.45
2023-05-05T16:08:10.145Z,40.38
2023-05-05T16:10:38.359Z,40.81
2023-05-05T16:13:06.357Z,41.50
2023-05-05T16:15:35.707Z,41.36
2023-05-05T16:18:03.972Z,41.19
2023-05-05T16:20:32.146Z,41.10
2023-05-05T16:23:00.164Z,41.11
2023-05-05T16:25:28.302Z,41.42
2023-05-05T16:27:57.637Z,41.81
2023-05-05T16:30:26.236Z,42.18
2023-05-05T16:32:54.843Z,42.04
2023-05-05T16:35:23.180Z,42.38
2023-05-05T16:37:51.390Z,42.82
2023-05-05T16:40:19.407Z,43.95
2023-05-05T16:42:47.443Z,44.60
2023-05-05T16:45:15.591Z,45.62
2023-05-05T16:47:43.790Z,46.43
2023-05-05T16:50:11.901Z,47.29
2023-05-05T16:52:39.913Z,47.69
2023-05-05T16:55:08.645Z,48.70
2023-05-05T16:57:36.855Z,50.09
2023-05-05T17:00:07.645Z,50.90
2023-05-05T17:02:36.031Z,51.85
2023-05-05T17:05:04.705Z,52.60
2023-05-05T17:07:32.865Z,53.59
2023-05-05T17:10:00.972Z,54.33
2023-05-05T17:12:28.999Z,54.91
2023-05-05T17:14:57.006Z,55.80
2023-05-05T17:17:25.039Z,56.52
2023-05-05T17:19:53.045Z,56.50
2023-05-05T17:22:21.066Z,56.39
2023-05-05T17:24:49.096Z,57.32
2023-05-05T17:27:17.139Z,57.44
2023-05-05T17:29:45.122Z,57.71
2023-05-05T17:32:13.199Z,58.37
2023-05-05T17:34:41.564Z,59.50
2023-05-05T17:37:09.891Z,59.99
2023-05-05T17:39:38.003Z,61.17
2023-05-05T17:42:06.124Z,61.84
2023-05-05T17:44:34.140Z,61.43
2023-05-05T17:47:04.031Z,60.91
2023-05-05T17:49:32.289Z,61.39
2023-05-05T17:52:00.722Z,61.35
2023-05-05T17:54:28.631Z,62.16
2023-05-05T17:56:56.684Z,62.18
2023-05-05T17:59:24.781Z,62.32
2023-05-05T18:01:52.793Z,62.38
2023-05-05T18:04:20.810Z,62.11
2023-05-05T18:06:48.832Z,62.17
2023-05-05T18:09:17.825Z,63.56
2023-05-05T18:11:46.071Z,63.47
2023-05-05T18:14:14.097Z,63.51
2023-05-05T18:16:47.840Z,62.78
2023-05-05T18:19:18.415Z,63.44
2023-05-05T18:21:46.897Z,63.39
2023-05-05T18:24:20.479Z,63.20
2023-05-05T18:26:50.978Z,64.19
2023-05-05T18:29:20.282Z,64.81
2023-05-05T18:31:51.784Z,63.38
2023-05-05T18:34:20.969Z,65.11
2023-05-05T18:36:51.535Z,63.57
2023-05-05T18:39:20.382Z,65.08
2023-05-05T18:41:48.405Z,65.99
2023-05-05T18:44:16.418Z,64.90
2023-05-05T18:46:44.899Z,65.71
2023-05-05T18:49:13.061Z,65.27
2023-05-05T18:51:41.585Z,64.99
2023-05-05T18:54:09.459Z,65.37
2023-05-05T18:56:37.637Z,65.83
2023-05-05T18:59:05.752Z,65.81
2023-05-05T19:01:33.770Z,65.85
2023-05-05T19:04:01.813Z,65.80
2023-05-05T19:06:29.998Z,66.14
2023-05-05T19:08:58.536Z,65.00
2023-05-05T19:11:26.543Z,65.30
2023-05-05T19:13:54.678Z,65.97
2023-05-05T19:16:23.200Z,66.46
2023-05-05T19:18:51.205Z,66.74
2023-05-05T19:21:19.425Z,67.05
2023-05-05T19:23:47.443Z,66.76
2023-05-05T19:26:16.366Z,66.33
2023-05-05T19:28:44.387Z,66.35
2023-05-05T19:31:12.408Z,67.42
2023-05-05T19:33:45.266Z,68.18
2023-05-05T19:36:13.365Z,68.35
2023-05-05T19:38:44.567Z,67.69
2023-05-05T19:41:12.809Z,68.43
2023-05-05T19:43:40.843Z,68.73
2023-05-05T19:46:08.937Z,68.96
2023-05-05T19:48:37.172Z,68.99
2023-05-05T19:51:05.194Z,69.10
2023-05-05T19:53:33.210Z,69.01
2023-05-05T19:56:01.226Z,68.98
2023-05-05T19:58:29.246Z,69.27
2023-05-05T20:00:57.363Z,69.58
2023-05-05T20:03:25.882Z,69.13
2023-05-05T20:05:54.010Z,68.99
2023-05-05T20:08:22.037Z,68.55
2023-05-05T20:10:50.854Z,69.60
2023-05-05T20:13:18.916Z,69.71
2023-05-05T20:15:47.306Z,70.05
2023-05-05T20:18:15.410Z,70.12
2023-05-05T20:20:43.428Z,70.25
2023-05-05T20:23:11.553Z,70.00
2023-05-05T20:25:39.572Z,68.99
2023-05-05T20:28:07.604Z,68.76
2023-05-05T20:30:35.912Z,69.09
2023-05-05T20:33:04.170Z,69.29
2023-05-05T20:35:32.362Z,69.29
2023-05-05T20:38:00.374Z,69.08
2023-05-05T20:40:28.341Z,69.13
2023-05-05T20:42:56.430Z,68.49
2023-05-05T20:45:25.044Z,67.97
2023-05-05T20:47:53.238Z,68.59
2023-05-05T20:50:21.574Z,69.23
2023-05-05T20:52:49.709Z,68.80
2023-05-05T20:55:17.717Z,68.60
2023-05-05T20:57:46.285Z,69.41
2023-05-05T21:00:14.659Z,70.03
2023-05-05T21:02:43.062Z,69.80
2023-05-05T21:05:12.005Z,69.93
2023-05-05T21:07:40.120Z,69.87
2023-05-05T21:10:09.494Z,69.51
2023-05-05T21:12:38.118Z,69.70
2023-05-05T21:15:07.556Z,69.52
2023-05-05T21:17:36.252Z,69.32
2023-05-05T21:20:04.932Z,69.46
2023-05-05T21:22:32.965Z,69.61
2023-05-05T21:25:15.637Z,69.80
2023-05-05T21:27:44.746Z,69.25
2023-05-05T21:30:13.399Z,69.61
2023-05-05T21:32:42.224Z,69.79
2023-05-05T21:35:10.910Z,69.48
2023-05-05T21:37:39.631Z,69.64
2023-05-05T21:40:13.930Z,69.49
2023-05-05T21:42:43.399Z,68.75
2023-05-05T21:45:12.135Z,69.21
2023-05-05T21:47:40.386Z,69.43
2023-05-05T21:50:10.411Z,69.50
2023-05-05T21:52:38.705Z,69.62
2023-05-05T21:55:07.348Z,69.65
2023-05-05T21:57:35.365Z,69.21
2023-05-05T22:00:05.815Z,69.25
2023-05-05T22:02:40.603Z,69.81
2023-05-05T22:05:09.529Z,69.54
2023-05-05T22:07:37.651Z,69.57
2023-05-05T22:10:06.675Z,69.60
2023-05-05T22:12:34.816Z,69.28
2023-05-05T22:15:02.913Z,69.35
2023-05-05T22:17:30.950Z,69.09
2023-05-05T22:19:58.953Z,69.10
2023-05-05T22:22:26.970Z,69.71
2023-05-05T22:24:54.989Z,69.48
2023-05-05T22:27:23.312Z,69.63
2023-05-05T22:29:51.328Z,69.45
2023-05-05T22:32:20.657Z,69.36
2023-05-05T22:34:48.772Z,69.18
2023-05-05T22:37:16.794Z,68.74
2023-05-05T22:39:44.911Z,69.10
2023-05-05T22:42:12.948Z,69.64
2023-05-05T22:44:40.960Z,69.19
2023-05-05T22:47:09.279Z,69.04
2023-05-05T22:49:37.569Z,68.86
2023-05-05T22:52:05.721Z,69.48
2023-05-05T22:54:33.745Z,70.38
2023-05-05T22:57:02.376Z,70.33
2023-05-05T22:59:30.283Z,70.66
2023-05-05T23:01:58.490Z,70.51
2023-05-05T23:04:26.545Z,70.30
2023-05-05T23:06:54.631Z,70.66
2023-05-05T23:09:22.657Z,70.96
2023-05-05T23:11:50.674Z,71.06
2023-05-05T23:14:19.602Z,71.06
2023-05-05T23:16:47.646Z,71.07
2023-05-05T23:19:15.843Z,71.70
2023-05-05T23:21:52.635Z,71.75
2023-05-05T23:24:22.131Z,71.35
2023-05-05T23:26:50.233Z,71.60
2023-05-05T23:29:19.315Z,72.19
2023-05-05T23:31:47.574Z,71.88
2023-05-05T23:34:15.605Z,72.05
2023-05-05T23:36:43.887Z,72.55
2023-05-05T23:39:12.148Z,72.84
2023-05-05T23:41:40.358Z,72.78
2023-05-05T23:44:08.484Z,72.53
2023-05-05T23:46:36.466Z,72.01
2023-05-05T23:49:04.513Z,71.80
2023-05-05T23:51:32.585Z,71.81
2023-05-05T23:54:01.264Z,71.43
2023-05-05T23:56:29.179Z,71.34
2023-05-05T23:58:57.194Z,71.45
